Fulton, IN (46931)

9:03 PM EDT on July 07, 2015 (GMT -0400)
Leroy's BarnYard | | Change Station
CLOSE
Current Station
Personal Weather Station
Location: Kewanna, IN
Elevation: 758 ft
Nearby Weather Stations

Elev 758 ft 40.99 °N, 86.35 °W | Updated 1 minute ago

Rain
Rain
61.1 °F
Feels Like 61.1 °F
N
8.0
Wind Variable Wind from NNW
Gusts 8.0 mph

Today
High -- | Low -- °F
--% Chance of Precip.
Yesterday
High -- | Low -- °F
Precip. -- in
6:20 AM 9:19 PM
Waning Gibbous, 59% visible
Pressure 30.03 in
Visibility 10.0 miles
Clouds Clear
Dew Point 52 °F
Humidity 73%
Rainfall 0.76 in
Snow Depth Not available.
UV 0 out of 12
Pollen .50 out of 12
Air Quality Not available.
Flu Activity Not available.
METAR KRCR 080055Z AUTO 33006KT 10SM CLR 17/11 A3003 RMK AO2

More Conditions Fewer Conditions

Pressure 30.03 in
Visibility 10.0 miles
Clouds Clear
Dew Point 52 °F
Humidity 73%
Rainfall 0.76 in
Snow Depth Not available.
UV 0 out of 12
Pollen .50 out of 12
Air Quality Not available.
Flu Activity Not available.
METAR KRCR 080055Z AUTO 33006KT 10SM CLR 17/11 A3003 RMK AO2

More Conditions Fewer Conditions

10-Day Weather Forecast

×

Almanac

Astronomy

Jul. 07, 2015 Rise Set
Actual Time
Civil Twilight
Nautical Twilight
Astronomical Twilight
Moon
Length of Visible Light
Length of Day
Tomorrow will be .
, % of the Moon is Illuminated

Today's Extremes

State Highs State Lows

Community

WunderPhotos

Upload Photos

1,835,985 photos uploaded!

WunderBlogs® & News

Nearby

Air Quality

  Air Quality AQ Index Pollutant
Not available.

Snow Depth

Station Depth Elevation

Earthquake Activity

City Distance Mag. Time & Date
Minimum magnitude displayed is 2.5.

Coastal Water Temperatures

Place Temperature

Stations

Nearby Weather Stations

Station Location Temp. Windchill Dew Point Humidity Wind Precip. Elev Updated Type